Time;durP1;ratioP1;P1;durP2;ratioP2;P2;SDS_P1;SDS_P2;PMS_P1;PMS_P2;Temp;Humidity;BMP_temperature;BMP_pressure;BME280_temperature;BME280_humidity;BME280_pressure;Samples;Min_cycle;Max_cycle;Signal;HPM_P1;HPM_P2
2022/03/10 00:00:14;;;;;;;22.08;9.98;;;4.50;89.90;;;;;;5071006;28;20111;-86
2022/03/10 00:02:44;;;;;;;20.02;9.57;;;4.50;90.00;;;;;;5048194;28;20029;-86
2022/03/10 00:05:15;;;;;;;19.60;9.43;;;4.50;90.00;;;;;;5078463;28;20040;-86
2022/03/10 00:07:42;;;;;;;23.48;10.45;;;4.50;90.10;;;;;;5078416;28;20070;-87
2022/03/10 00:10:09;;;;;;;27.48;10.27;;;4.50;90.10;;;;;;5072351;28;20029;-83
2022/03/10 00:12:35;;;;;;;28.33;10.32;;;4.40;90.10;;;;;;5061968;28;20045;-84
2022/03/10 00:15:04;;;;;;;21.60;9.27;;;4.40;90.20;;;;;;5059969;28;20405;-88
2022/03/10 00:17:30;;;;;;;23.40;9.32;;;4.40;90.30;;;;;;5093298;28;20023;-85
2022/03/10 00:19:56;;;;;;;22.80;9.50;;;4.40;90.40;;;;;;5088686;28;20036;-84
2022/03/10 00:22:21;;;;;;;24.35;9.32;;;4.40;90.50;;;;;;5061849;28;20033;-83
2022/03/10 00:24:47;;;;;;;27.63;10.10;;;4.30;90.70;;;;;;5082845;28;20021;-84
2022/03/10 00:27:14;;;;;;;21.60;9.63;;;4.30;90.90;;;;;;5091689;28;20029;-84
2022/03/10 00:29:39;;;;;;;22.77;9.70;;;4.30;91.10;;;;;;5081946;28;20069;-86
2022/03/10 00:32:05;;;;;;;24.20;9.98;;;4.20;91.20;;;;;;5086956;28;20044;-83
2022/03/10 00:34:32;;;;;;;23.13;10.05;;;4.20;91.30;;;;;;5078926;28;20055;-85
2022/03/10 00:36:57;;;;;;;24.42;9.77;;;4.20;91.50;;;;;;5077560;28;20013;-83
2022/03/10 00:39:24;;;;;;;22.55;9.82;;;4.10;91.70;;;;;;5077696;28;20037;-86
2022/03/10 00:41:50;;;;;;;26.55;10.68;;;4.00;91.90;;;;;;5080709;28;20029;-82
2022/03/10 00:44:16;;;;;;;22.20;10.27;;;4.00;92.00;;;;;;5073931;28;20025;-86
2022/03/10 00:46:42;;;;;;;24.13;10.27;;;4.00;92.00;;;;;;5076670;28;20013;-86
2022/03/10 00:49:08;;;;;;;21.77;10.48;;;4.00;92.20;;;;;;5064496;28;20526;-85
2022/03/10 00:51:34;;;;;;;28.63;10.82;;;4.00;92.10;;;;;;5064718;28;20017;-84
2022/03/10 00:53:59;;;;;;;20.23;10.02;;;4.10;92.10;;;;;;5073009;28;20109;-86
2022/03/10 00:56:25;;;;;;;21.88;9.43;;;4.10;92.10;;;;;;5061753;28;20044;-86
2022/03/10 00:58:51;;;;;;;28.30;11.82;;;4.10;92.20;;;;;;5055150;28;20055;-87
2022/03/10 01:01:17;;;;;;;25.77;9.85;;;4.10;92.30;;;;;;5051916;28;20029;-86
2022/03/10 01:03:42;;;;;;;28.70;10.77;;;4.10;92.40;;;;;;5082084;28;20025;-86
2022/03/10 01:06:08;;;;;;;25.55;9.55;;;4.00;92.40;;;;;;5047298;28;20025;-85
2022/03/10 01:08:36;;;;;;;24.00;10.15;;;4.00;92.50;;;;;;5069635;28;20028;-86
2022/03/10 01:11:02;;;;;;;17.70;8.85;;;3.90;92.40;;;;;;5068561;28;20024;-85
2022/03/10 01:13:28;;;;;;;21.50;9.50;;;4.00;92.00;;;;;;5062977;28;20051;-86
2022/03/10 01:15:54;;;;;;;20.00;9.57;;;4.00;91.70;;;;;;5064611;28;20151;-86
2022/03/10 01:18:19;;;;;;;22.83;9.63;;;4.00;91.50;;;;;;5047790;28;20484;-85
2022/03/10 01:20:45;;;;;;;22.38;10.05;;;4.00;91.40;;;;;;5071776;28;20016;-84
2022/03/10 01:23:11;;;;;;;24.73;10.45;;;4.10;91.30;;;;;;5087158;28;20032;-82
2022/03/10 01:25:38;;;;;;;19.98;9.82;;;4.10;91.20;;;;;;5061781;28;20067;-82
2022/03/10 01:28:04;;;;;;;22.00;9.40;;;4.10;91.20;;;;;;5078831;28;20027;-82
2022/03/10 01:30:30;;;;;;;22.65;10.88;;;4.00;91.30;;;;;;5083487;28;20013;-82
2022/03/10 01:32:56;;;;;;;22.70;9.85;;;4.00;91.30;;;;;;5072330;28;20040;-86
2022/03/10 01:35:22;;;;;;;28.27;9.98;;;4.00;91.50;;;;;;5073741;28;20094;-85
2022/03/10 01:37:48;;;;;;;25.63;10.32;;;3.90;91.60;;;;;;5067195;28;20029;-87
2022/03/10 01:40:16;;;;;;;24.80;10.80;;;3.90;91.50;;;;;;5050399;28;20043;-84
2022/03/10 01:42:42;;;;;;;22.50;10.00;;;3.90;91.50;;;;;;5081137;28;20036;-86
2022/03/10 01:45:10;;;;;;;22.30;10.15;;;3.90;91.60;;;;;;5086025;28;20085;-84
2022/03/10 01:47:36;;;;;;;29.08;11.23;;;3.90;91.70;;;;;;5087187;28;20047;-84
2022/03/10 01:50:03;;;;;;;27.63;10.13;;;3.90;91.70;;;;;;5074219;28;20033;-84
2022/03/10 01:52:30;;;;;;;24.02;10.65;;;3.80;91.80;;;;;;5073806;28;20055;-86
2022/03/10 01:54:57;;;;;;;25.25;10.07;;;3.70;91.90;;;;;;5082737;28;20032;-85
2022/03/10 01:57:24;;;;;;;22.02;10.50;;;3.70;92.00;;;;;;5053800;28;20029;-85
2022/03/10 01:59:50;;;;;;;23.85;10.82;;;3.70;92.10;;;;;;5072973;28;20025;-84
2022/03/10 02:02:16;;;;;;;24.00;10.45;;;3.70;92.10;;;;;;5061458;28;20056;-84
2022/03/10 02:04:42;;;;;;;23.52;10.93;;;3.70;92.20;;;;;;5092606;28;20028;-84
2022/03/10 02:12:37;;;;;;;28.65;11.32;;;3.60;92.40;;;;;;5076869;28;20079;-83
2022/03/10 02:17:58;;;;;;;24.45;10.35;;;3.50;92.60;;;;;;5054170;28;20028;-85
2022/03/10 02:20:24;;;;;;;32.83;11.07;;;3.50;92.80;;;;;;5060180;28;20024;-86
2022/03/10 02:22:50;;;;;;;27.00;10.18;;;3.40;92.90;;;;;;5071148;28;20028;-84
2022/03/10 02:25:16;;;;;;;25.00;10.48;;;3.40;93.00;;;;;;5084605;28;20103;-85
2022/03/10 02:27:48;;;;;;;26.65;11.18;;;3.50;93.20;;;;;;5073169;28;20038;-83
2022/03/10 02:30:13;;;;;;;30.00;10.93;;;3.40;93.30;;;;;;5097055;28;20028;-83
2022/03/10 02:32:40;;;;;;;25.58;10.38;;;3.40;93.40;;;;;;5074224;28;20040;-85
2022/03/10 02:35:06;;;;;;;22.55;10.50;;;3.50;93.80;;;;;;5087302;28;20080;-82
2022/03/10 02:37:31;;;;;;;28.50;11.65;;;3.40;93.90;;;;;;5087451;28;20029;-86
2022/03/10 02:39:57;;;;;;;23.83;11.02;;;3.50;94.20;;;;;;5066805;28;20029;-85
2022/03/10 02:42:24;;;;;;;27.10;10.80;;;3.50;94.30;;;;;;5048221;28;20056;-86
2022/03/10 02:44:50;;;;;;;33.60;12.57;;;3.50;94.30;;;;;;5064610;28;20543;-85
2022/03/10 02:47:18;;;;;;;33.15;12.25;;;3.40;94.30;;;;;;5080139;28;20043;-83
2022/03/10 02:49:44;;;;;;;27.80;12.27;;;3.50;94.30;;;;;;5045908;28;20029;-86
2022/03/10 02:52:10;;;;;;;25.60;11.38;;;3.50;94.20;;;;;;5070747;28;20105;-85
2022/03/10 02:54:36;;;;;;;24.50;10.73;;;3.50;94.30;;;;;;5068681;28;20029;-85
2022/03/10 02:57:02;;;;;;;24.77;10.35;;;3.50;94.10;;;;;;5066093;28;20032;-85
2022/03/10 02:59:28;;;;;;;20.20;10.10;;;3.50;94.20;;;;;;5029346;28;20074;-85
2022/03/10 03:01:56;;;;;;;27.42;11.27;;;3.50;94.20;;;;;;5052119;28;20025;-84
2022/03/10 03:04:22;;;;;;;25.33;10.63;;;3.50;94.30;;;;;;5054491;28;20036;-85
2022/03/10 03:06:48;;;;;;;28.95;10.38;;;3.50;94.40;;;;;;5063875;28;20425;-85
2022/03/10 03:09:14;;;;;;;27.95;11.18;;;3.50;94.70;;;;;;5078672;28;20044;-85
2022/03/10 03:11:39;;;;;;;27.92;10.88;;;3.50;94.90;;;;;;5079719;28;20027;-85
2022/03/10 03:14:05;;;;;;;21.38;10.20;;;3.50;94.90;;;;;;5063183;28;20029;-86
2022/03/10 03:16:31;;;;;;;22.08;10.07;;;3.50;94.80;;;;;;5060193;28;20390;-84
2022/03/10 03:18:57;;;;;;;25.55;11.18;;;3.50;94.70;;;;;;5082827;28;20023;-85
2022/03/10 03:21:23;;;;;;;24.70;10.85;;;3.60;94.80;;;;;;5061989;28;20033;-85
2022/03/10 03:23:50;;;;;;;23.42;10.40;;;3.50;94.80;;;;;;5048970;28;20475;-84
2022/03/10 03:26:16;;;;;;;26.38;11.45;;;3.60;94.70;;;;;;5063100;28;20029;-84
2022/03/10 03:28:43;;;;;;;30.42;11.00;;;3.60;95.00;;;;;;5062306;28;20032;-84
2022/03/10 03:31:10;;;;;;;26.50;11.43;;;3.60;94.90;;;;;;5060783;28;20017;-85
2022/03/10 03:33:37;;;;;;;25.58;11.10;;;3.60;94.90;;;;;;5063130;28;20075;-86
2022/03/10 03:36:03;;;;;;;26.15;10.95;;;3.60;95.00;;;;;;5074534;28;20021;-85
2022/03/10 03:38:29;;;;;;;28.88;12.70;;;3.60;95.00;;;;;;5061961;28;20029;-87
2022/03/10 03:40:55;;;;;;;23.80;11.05;;;3.60;95.00;;;;;;5071411;28;20078;-85
2022/03/10 03:43:21;;;;;;;23.80;10.13;;;3.60;94.90;;;;;;5043999;28;20115;-85
2022/03/10 03:45:46;;;;;;;27.70;11.63;;;3.60;95.00;;;;;;5064229;28;20050;-86
2022/03/10 03:48:12;;;;;;;26.25;11.18;;;3.60;95.10;;;;;;5058619;28;20055;-85
2022/03/10 03:50:38;;;;;;;27.60;10.77;;;3.50;95.40;;;;;;5056225;28;20037;-84
2022/03/10 03:53:04;;;;;;;24.42;10.75;;;3.60;94.80;;;;;;5059080;28;20040;-83
2022/03/10 03:55:29;;;;;;;25.65;11.02;;;3.50;94.70;;;;;;5071363;28;20025;-84
2022/03/10 03:57:55;;;;;;;24.58;10.20;;;3.50;94.70;;;;;;5051765;28;20033;-85
2022/03/10 04:00:21;;;;;;;25.85;10.68;;;3.50;94.80;;;;;;5051811;28;20009;-84
2022/03/10 04:02:47;;;;;;;22.95;11.10;;;3.40;94.70;;;;;;5070415;28;20056;-83
2022/03/10 04:05:13;;;;;;;26.70;11.15;;;3.50;94.60;;;;;;5065997;28;20020;-86
2022/03/10 04:07:39;;;;;;;24.05;11.60;;;3.40;94.50;;;;;;5100894;23;20340;-86
2022/03/10 04:10:07;;;;;;;28.45;10.95;;;3.40;94.70;;;;;;5069374;28;20029;-86
2022/03/10 04:12:34;;;;;;;26.80;11.15;;;3.50;94.40;;;;;;5046785;28;20037;-85
2022/03/10 04:15:00;;;;;;;27.77;11.50;;;3.50;94.30;;;;;;5082108;28;20029;-87
2022/03/10 04:17:27;;;;;;;23.88;9.98;;;3.50;94.20;;;;;;5066514;28;20033;-86
2022/03/10 04:19:52;;;;;;;23.95;10.80;;;3.50;94.20;;;;;;5065046;28;20050;-85
2022/03/10 04:22:18;;;;;;;25.40;10.80;;;3.50;94.30;;;;;;5080202;28;20025;-86
2022/03/10 04:24:44;;;;;;;25.40;9.80;;;3.50;94.40;;;;;;5083528;28;20081;-85
2022/03/10 04:27:10;;;;;;;24.15;10.07;;;3.50;94.40;;;;;;5098944;28;20028;-85
2022/03/10 04:29:36;;;;;;;27.20;10.80;;;3.40;94.50;;;;;;5085682;28;20021;-86
2022/03/10 04:32:02;;;;;;;21.10;10.50;;;3.40;94.80;;;;;;5065738;28;20040;-86
2022/03/10 04:34:28;;;;;;;26.33;11.30;;;3.30;95.00;;;;;;5067465;28;20047;-87
2022/03/10 04:36:53;;;;;;;24.35;10.45;;;3.30;95.50;;;;;;5089607;28;20051;-84
2022/03/10 04:39:19;;;;;;;29.27;11.63;;;3.30;95.90;;;;;;5071951;28;20028;-86
2022/03/10 04:41:45;;;;;;;26.42;11.02;;;3.20;96.10;;;;;;5069601;28;20041;-86
2022/03/10 04:44:11;;;;;;;24.63;10.90;;;3.20;96.30;;;;;;5080863;28;20047;-86
2022/03/10 04:46:37;;;;;;;26.73;10.85;;;3.20;96.60;;;;;;5060212;28;20035;-83
2022/03/10 04:49:03;;;;;;;27.25;11.10;;;3.20;96.80;;;;;;5077250;28;20036;-84
2022/03/10 04:51:29;;;;;;;25.85;10.60;;;3.20;96.90;;;;;;5093992;28;20029;-86
2022/03/10 04:53:55;;;;;;;21.55;10.00;;;3.20;96.80;;;;;;5059018;28;20147;-84
2022/03/10 04:56:21;;;;;;;27.63;10.80;;;3.10;96.80;;;;;;5092817;28;20099;-85
2022/03/10 04:58:46;;;;;;;21.92;9.90;;;3.10;97.00;;;;;;5086664;28;20021;-86
2022/03/10 05:01:14;;;;;;;27.33;10.77;;;3.10;97.00;;;;;;5083620;28;20039;-86
2022/03/10 05:03:40;;;;;;;27.08;10.88;;;3.10;97.00;;;;;;5073201;28;20112;-86
2022/03/10 05:06:06;;;;;;;29.90;11.15;;;3.00;97.10;;;;;;5062171;28;20078;-85
2022/03/10 05:08:31;;;;;;;26.92;11.55;;;3.00;97.20;;;;;;5082092;28;20029;-84
2022/03/10 05:10:58;;;;;;;27.52;11.43;;;3.00;97.20;;;;;;5075366;28;20040;-86
2022/03/10 05:13:24;;;;;;;22.67;10.73;;;3.00;97.00;;;;;;5077277;28;20110;-84
2022/03/10 05:15:50;;;;;;;24.45;11.38;;;3.00;97.20;;;;;;5078503;28;20086;-85
2022/03/10 05:18:16;;;;;;;30.55;11.80;;;3.00;97.40;;;;;;5086010;28;20025;-85
2022/03/10 05:20:45;;;;;;;26.85;11.30;;;2.90;97.60;;;;;;5093501;28;20046;-83
2022/03/10 05:23:11;;;;;;;29.75;11.43;;;2.90;97.80;;;;;;5094892;28;20032;-84
2022/03/10 05:25:41;;;;;;;26.42;11.30;;;2.90;97.90;;;;;;5073382;28;20037;-85
2022/03/10 05:28:16;;;;;;;24.05;10.70;;;2.90;98.10;;;;;;5096659;28;20033;-85
2022/03/10 05:30:42;;;;;;;28.20;10.90;;;2.90;98.30;;;;;;5087656;28;21056;-84
2022/03/10 05:33:12;;;;;;;34.85;11.38;;;2.90;98.30;;;;;;5084846;28;20075;-85
2022/03/10 05:35:38;;;;;;;27.35;11.02;;;2.90;98.30;;;;;;5077143;28;20037;-86
2022/03/10 05:38:04;;;;;;;25.35;11.27;;;2.90;98.30;;;;;;5056003;28;20039;-83
2022/03/10 05:40:30;;;;;;;29.27;11.82;;;2.90;98.40;;;;;;5072550;28;20128;-86
2022/03/10 05:42:57;;;;;;;33.60;11.77;;;3.00;98.20;;;;;;5074144;28;20020;-86
2022/03/10 05:45:24;;;;;;;29.70;11.82;;;3.00;98.20;;;;;;5079859;28;20028;-84
2022/03/10 05:47:52;;;;;;;28.13;11.35;;;3.00;98.20;;;;;;5083888;28;20021;-87
2022/03/10 05:50:19;;;;;;;26.02;11.35;;;3.00;98.10;;;;;;5086836;28;20055;-84
2022/03/10 05:52:45;;;;;;;26.48;11.30;;;3.00;98.10;;;;;;5083410;28;20029;-83
2022/03/10 05:55:12;;;;;;;27.05;11.10;;;3.10;98.00;;;;;;5063708;28;20527;-85
2022/03/10 05:57:39;;;;;;;25.38;11.25;;;3.10;97.90;;;;;;5082704;28;20123;-85
2022/03/10 06:00:06;;;;;;;29.88;11.82;;;3.10;98.00;;;;;;5053096;28;20032;-86
2022/03/10 06:02:38;;;;;;;27.15;11.95;;;3.20;98.00;;;;;;5090392;28;20020;-85
2022/03/10 06:05:04;;;;;;;29.08;11.02;;;3.10;98.10;;;;;;5076423;28;20041;-86
2022/03/10 06:07:31;;;;;;;25.95;11.50;;;3.20;98.10;;;;;;5075303;28;20044;-83
2022/03/10 06:09:57;;;;;;;29.60;11.02;;;3.30;98.10;;;;;;5079761;28;20024;-84
2022/03/10 06:12:24;;;;;;;23.83;10.95;;;3.30;98.10;;;;;;5059111;28;20502;-83
2022/03/10 06:14:55;;;;;;;24.83;11.10;;;3.40;98.10;;;;;;5066137;28;20103;-87
2022/03/10 06:17:21;;;;;;;25.92;11.35;;;3.40;98.00;;;;;;5065869;28;20076;-85
2022/03/10 06:19:48;;;;;;;27.52;11.27;;;3.40;97.80;;;;;;5064806;28;20032;-83
2022/03/10 06:22:21;;;;;;;25.23;11.73;;;3.50;97.70;;;;;;5058564;28;20098;-84
2022/03/10 06:24:49;;;;;;;25.80;11.27;;;3.60;97.50;;;;;;5064443;28;20032;-83
2022/03/10 06:27:17;;;;;;;30.42;11.77;;;3.70;97.40;;;;;;5077677;28;20127;-83
2022/03/10 06:29:44;;;;;;;28.23;11.60;;;3.80;97.10;;;;;;5079730;28;20116;-83
2022/03/10 06:32:12;;;;;;;28.55;12.10;;;3.90;96.80;;;;;;5065379;28;20124;-85
2022/03/10 06:34:38;;;;;;;31.48;12.15;;;4.00;96.60;;;;;;5088911;28;20012;-84
2022/03/10 06:37:04;;;;;;;29.00;12.77;;;4.10;96.40;;;;;;5082978;28;20039;-84
2022/03/10 06:39:31;;;;;;;28.48;12.65;;;4.10;96.30;;;;;;5093398;28;20028;-83
2022/03/10 06:41:57;;;;;;;27.20;12.23;;;4.20;96.40;;;;;;5076693;28;20366;-84
2022/03/10 06:44:24;;;;;;;32.28;12.00;;;4.20;96.20;;;;;;5092361;28;20515;-84
2022/03/10 06:46:51;;;;;;;25.60;11.95;;;4.30;96.20;;;;;;5073128;28;20456;-84
2022/03/10 06:49:17;;;;;;;31.25;12.52;;;4.30;96.20;;;;;;5092562;28;20044;-84
2022/03/10 06:51:42;;;;;;;32.95;12.23;;;4.40;96.10;;;;;;5084951;28;20044;-83
2022/03/10 06:54:10;;;;;;;34.95;12.55;;;4.50;96.00;;;;;;5076378;28;20036;-85
2022/03/10 06:56:38;;;;;;;26.52;12.77;;;4.60;95.80;;;;;;5059735;28;20058;-83
2022/03/10 06:59:04;;;;;;;34.42;15.45;;;4.80;95.60;;;;;;5086524;28;20021;-83
2022/03/10 07:01:30;;;;;;;30.73;13.77;;;5.00;95.30;;;;;;5096777;28;20088;-82
2022/03/10 07:03:57;;;;;;;35.05;12.40;;;5.10;95.10;;;;;;5079233;28;20042;-83
2022/03/10 07:06:24;;;;;;;30.98;13.35;;;5.20;94.90;;;;;;5090762;28;20032;-84
2022/03/10 07:08:51;;;;;;;36.60;12.90;;;5.30;94.70;;;;;;5085085;28;20533;-84
2022/03/10 07:11:17;;;;;;;28.55;11.90;;;5.60;94.40;;;;;;5065490;28;20034;-83
2022/03/10 07:13:45;;;;;;;28.08;13.57;;;5.90;94.00;;;;;;5090855;28;20051;-84
2022/03/10 07:16:12;;;;;;;40.63;14.43;;;6.10;93.70;;;;;;5097151;28;20020;-84
2022/03/10 07:18:37;;;;;;;33.15;14.32;;;6.60;93.00;;;;;;5096963;28;20060;-83
2022/03/10 07:21:04;;;;;;;29.42;13.07;;;6.90;92.40;;;;;;5096963;28;20032;-83
2022/03/10 07:23:32;;;;;;;33.47;14.07;;;7.00;92.20;;;;;;5096681;28;20072;-82
2022/03/10 07:25:58;;;;;;;33.58;14.48;;;7.00;92.00;;;;;;5078982;28;20008;-84
2022/03/10 07:28:24;;;;;;;37.92;15.65;;;7.10;91.70;;;;;;5095853;28;20025;-84
2022/03/10 07:30:50;;;;;;;35.05;14.30;;;7.30;91.70;;;;;;5096784;28;20032;-84
2022/03/10 07:33:16;;;;;;;36.00;15.93;;;7.40;91.40;;;;;;5077027;28;20044;-83
2022/03/10 07:35:42;;;;;;;31.30;14.43;;;7.50;91.50;;;;;;5065325;28;20029;-85
2022/03/10 07:38:10;;;;;;;30.42;13.75;;;7.60;91.30;;;;;;5084347;28;20033;-82
2022/03/10 07:40:36;;;;;;;30.02;15.40;;;7.60;91.00;;;;;;5073641;28;20029;-83
2022/03/10 07:43:03;;;;;;;26.85;14.15;;;7.50;91.10;;;;;;5092192;28;20037;-84
2022/03/10 07:45:29;;;;;;;29.40;14.02;;;7.50;91.10;;;;;;5079088;28;20017;-82
2022/03/10 07:47:57;;;;;;;32.15;14.20;;;7.60;90.90;;;;;;5098310;28;20009;-82
2022/03/10 07:50:23;;;;;;;35.17;14.48;;;7.70;90.80;;;;;;5099552;28;20099;-81
2022/03/10 07:52:49;;;;;;;33.30;14.35;;;7.80;90.80;;;;;;5078384;28;20029;-80
2022/03/10 07:55:15;;;;;;;33.40;14.80;;;7.70;91.00;;;;;;5081945;28;20076;-84
2022/03/10 07:57:41;;;;;;;37.50;16.83;;;7.80;91.20;;;;;;5100253;28;20032;-84
2022/03/10 08:00:09;;;;;;;41.55;16.60;;;7.90;91.20;;;;;;5100803;28;20017;-84
2022/03/10 08:02:37;;;;;;;33.10;15.57;;;7.90;91.30;;;;;;5100390;28;20024;-84
2022/03/10 08:05:04;;;;;;;38.45;17.48;;;7.70;91.30;;;;;;5100252;28;20034;-81
2022/03/10 08:07:32;;;;;;;41.13;17.10;;;7.80;91.30;;;;;;5068279;28;20055;-81
2022/03/10 08:10:00;;;;;;;33.90;16.75;;;7.80;91.30;;;;;;5083529;28;20028;-80
2022/03/10 08:12:31;;;;;;;38.80;15.88;;;7.80;91.00;;;;;;5081823;28;20031;-80
2022/03/10 08:14:57;;;;;;;38.70;17.33;;;7.70;91.30;;;;;;5072053;28;20033;-81
2022/03/10 08:17:23;;;;;;;35.95;16.42;;;7.60;91.50;;;;;;5062431;28;20081;-80
2022/03/10 08:19:50;;;;;;;40.83;18.33;;;7.50;91.80;;;;;;5077766;28;20060;-83
2022/03/10 08:22:16;;;;;;;31.13;15.30;;;7.50;91.80;;;;;;5076452;28;20053;-82
2022/03/10 08:24:44;;;;;;;43.65;16.63;;;7.40;91.70;;;;;;5095596;28;20043;-82
2022/03/10 08:27:10;;;;;;;32.38;16.90;;;7.40;91.90;;;;;;5078626;28;20025;-83
2022/03/10 08:29:37;;;;;;;37.30;16.90;;;7.40;92.10;;;;;;5091322;28;20028;-82
2022/03/10 08:32:03;;;;;;;39.65;17.20;;;7.40;92.00;;;;;;5074344;28;20028;-83
2022/03/10 08:34:30;;;;;;;36.08;16.70;;;7.50;92.00;;;;;;5074742;28;20048;-82
2022/03/10 08:36:57;;;;;;;35.10;15.95;;;7.40;92.00;;;;;;5092364;28;20021;-82
2022/03/10 08:39:23;;;;;;;35.70;17.23;;;7.50;91.90;;;;;;5090154;28;20039;-82
2022/03/10 08:41:53;;;;;;;35.80;16.67;;;7.40;91.90;;;;;;5074099;28;20040;-81
2022/03/10 08:44:21;;;;;;;40.00;17.05;;;7.30;91.90;;;;;;5091110;28;20024;-83
2022/03/10 08:46:47;;;;;;;38.03;16.30;;;7.20;92.20;;;;;;5096729;28;20009;-84
2022/03/10 08:49:17;;;;;;;40.30;17.67;;;7.10;92.40;;;;;;5076529;28;20060;-85
2022/03/10 08:51:44;;;;;;;36.58;17.17;;;7.10;92.40;;;;;;5073144;28;20007;-84
2022/03/10 08:54:12;;;;;;;38.13;17.52;;;7.20;92.50;;;;;;5092876;28;20078;-82
2022/03/10 08:56:38;;;;;;;38.83;19.08;;;7.30;92.50;;;;;;5076210;28;20012;-82
2022/03/10 08:59:04;;;;;;;39.38;19.27;;;7.50;92.20;;;;;;5094327;28;20028;-82
2022/03/10 09:01:30;;;;;;;45.47;17.90;;;7.80;91.70;;;;;;5093403;28;20035;-84
2022/03/10 09:03:55;;;;;;;39.00;18.27;;;8.00;91.40;;;;;;5082251;28;20027;-83
2022/03/10 09:06:21;;;;;;;38.13;16.98;;;8.10;91.20;;;;;;5083093;28;20032;-84
2022/03/10 09:08:48;;;;;;;39.47;16.83;;;8.20;90.90;;;;;;5089230;28;20101;-84
2022/03/10 09:11:15;;;;;;;40.78;18.65;;;8.20;91.00;;;;;;5092170;28;20029;-83
2022/03/10 09:13:44;;;;;;;34.47;17.55;;;8.10;91.00;;;;;;5088550;28;20048;-83
2022/03/10 09:16:10;;;;;;;35.92;16.58;;;7.90;90.70;;;;;;5092071;28;20016;-82
2022/03/10 09:18:36;;;;;;;32.50;16.38;;;7.60;90.90;;;;;;5095755;28;20029;-83
2022/03/10 09:21:02;;;;;;;28.65;15.15;;;7.50;91.10;;;;;;5095466;28;20031;-84
2022/03/10 09:23:29;;;;;;;31.45;16.15;;;7.40;90.90;;;;;;5060597;28;20046;-85
2022/03/10 09:25:55;;;;;;;29.00;15.07;;;7.10;90.90;;;;;;5096210;28;20021;-84
2022/03/10 09:28:20;;;;;;;29.92;15.18;;;7.00;91.00;;;;;;5090649;28;20060;-83
2022/03/10 09:30:46;;;;;;;28.52;15.05;;;7.00;91.00;;;;;;5086560;28;20033;-83
2022/03/10 09:33:14;;;;;;;30.23;14.60;;;7.50;90.60;;;;;;5084972;28;20115;-85
2022/03/10 09:35:39;;;;;;;28.83;14.48;;;8.50;89.10;;;;;;5073629;28;20042;-84
2022/03/10 09:38:06;;;;;;;25.55;13.75;;;10.30;84.70;;;;;;5095342;28;20028;-84
2022/03/10 09:40:32;;;;;;;27.77;13.15;;;11.90;79.80;;;;;;5073565;28;20023;-85
2022/03/10 09:42:58;;;;;;;26.13;13.93;;;13.00;75.80;;;;;;5091998;28;20041;-84
2022/03/10 09:45:23;;;;;;;24.10;13.60;;;14.10;72.80;;;;;;5093709;28;20025;-85
2022/03/10 09:47:49;;;;;;;26.55;13.88;;;15.40;69.00;;;;;;5073016;28;20063;-84
2022/03/10 09:50:17;;;;;;;25.48;13.70;;;15.70;66.80;;;;;;5091207;28;20016;-83
2022/03/10 09:52:44;;;;;;;24.20;14.20;;;15.50;66.80;;;;;;5074652;28;20044;-84
2022/03/10 09:55:11;;;;;;;25.98;14.32;;;15.80;65.60;;;;;;5059542;28;20024;-83
2022/03/10 09:57:42;;;;;;;23.98;13.48;;;15.60;65.50;;;;;;5092332;28;20020;-84
2022/03/10 10:00:11;;;;;;;21.38;12.93;;;14.90;65.60;;;;;;5093438;28;20043;-88
2022/03/10 10:02:37;;;;;;;27.05;13.75;;;14.80;66.00;;;;;;5093377;28;20031;-87
2022/03/10 10:05:25;;;;;;;21.58;11.90;;;14.80;64.60;;;;;;5072894;28;20043;-87
2022/03/10 10:10:28;;;;;;;22.10;11.95;;;13.70;65.90;;;;;;5068988;28;20057;-86
2022/03/10 10:12:54;;;;;;;18.73;11.55;;;14.90;64.20;;;;;;5074371;28;20029;-86
2022/03/10 10:15:19;;;;;;;23.10;11.77;;;15.00;63.60;;;;;;5073487;28;20394;-88
2022/03/10 10:17:55;;;;;;;19.33;12.13;;;15.70;62.50;;;;;;5072294;28;20021;-86
2022/03/10 10:20:21;;;;;;;23.60;11.88;;;16.60;60.60;;;;;;5089551;28;20059;-85
2022/03/10 10:22:48;;;;;;;20.90;12.30;;;18.10;58.30;;;;;;5089910;28;20024;-86
2022/03/10 10:25:23;;;;;;;20.35;12.20;;;18.10;57.20;;;;;;5076148;28;20546;-86
2022/03/10 10:27:49;;;;;;;20.60;11.85;;;18.70;56.20;;;;;;5075917;28;20060;-87
2022/03/10 10:30:15;;;;;;;27.55;12.77;;;18.10;56.50;;;;;;5093162;28;20021;-85
2022/03/10 10:32:49;;;;;;;20.33;12.52;;;17.60;56.90;;;;;;5094629;28;20042;-84
2022/03/10 10:35:20;;;;;;;20.10;13.30;;;18.00;56.20;;;;;;5088169;28;20050;-87
2022/03/10 10:37:55;;;;;;;18.90;12.73;;;18.30;55.80;;;;;;5085715;28;20024;-87
2022/03/10 10:40:23;;;;;;;19.42;12.55;;;18.90;55.20;;;;;;5086273;28;20036;-87
2022/03/10 10:42:49;;;;;;;20.27;12.57;;;19.40;54.50;;;;;;5082422;28;20063;-87
2022/03/10 10:45:32;;;;;;;20.27;12.82;;;18.80;54.20;;;;;;5091635;28;20021;-86
2022/03/10 10:48:08;;;;;;;21.83;13.02;;;18.60;54.80;;;;;;5093762;28;20020;-85
2022/03/10 10:50:40;;;;;;;23.95;12.40;;;18.20;55.00;;;;;;5074946;28;20029;-86
2022/03/10 10:53:08;;;;;;;21.15;13.57;;;18.00;55.60;;;;;;5090377;28;20083;-86
2022/03/10 10:55:36;;;;;;;22.27;12.70;;;17.30;55.70;;;;;;5094634;28;20521;-84
2022/03/10 10:58:25;;;;;;;25.23;13.98;;;16.30;56.70;;;;;;5077390;28;20033;-85
2022/03/10 11:00:51;;;;;;;25.63;13.13;;;15.50;57.70;;;;;;5094988;28;20031;-87
2022/03/10 11:03:36;;;;;;;23.90;12.80;;;14.00;58.50;;;;;;5073187;28;20148;-86
2022/03/10 11:06:03;;;;;;;22.05;12.40;;;12.70;60.50;;;;;;5082569;28;20013;-86
2022/03/10 11:08:29;;;;;;;21.92;12.80;;;12.10;61.90;;;;;;5075419;28;20017;-86
2022/03/10 11:10:55;;;;;;;21.33;13.10;;;12.30;62.30;;;;;;5057055;28;20040;-86
2022/03/10 11:13:22;;;;;;;22.17;12.10;;;13.90;60.60;;;;;;5094131;28;20075;-86
2022/03/10 11:15:50;;;;;;;25.20;13.20;;;16.10;58.40;;;;;;5093703;28;20037;-87
2022/03/10 11:18:15;;;;;;;20.90;12.23;;;16.70;55.80;;;;;;5080871;28;20029;-86
2022/03/10 11:20:48;;;;;;;21.08;12.35;;;15.20;56.60;;;;;;5099189;28;20044;-87
2022/03/10 11:23:14;;;;;;;20.75;12.10;;;13.60;58.60;;;;;;5097719;28;20059;-85
2022/03/10 11:26:10;;;;;;;18.45;11.27;;;13.40;59.70;;;;;;5097679;28;20024;-86
2022/03/10 11:28:43;;;;;;;16.23;10.35;;;15.30;57.50;;;;;;5097830;28;20071;-86
2022/03/10 11:31:11;;;;;;;18.17;11.23;;;17.60;53.90;;;;;;5098338;28;20032;-87
2022/03/10 11:33:38;;;;;;;17.88;10.88;;;17.60;53.30;;;;;;5100686;28;20059;-85
2022/03/10 11:36:25;;;;;;;19.38;10.32;;;16.60;53.80;;;;;;5101070;28;20012;-84
2022/03/10 11:38:53;;;;;;;15.05;10.10;;;15.90;54.50;;;;;;5080993;28;20104;-86
2022/03/10 11:41:19;;;;;;;17.75;10.55;;;14.90;55.40;;;;;;5078343;28;20036;-86
2022/03/10 11:43:57;;;;;;;15.80;9.77;;;14.50;56.00;;;;;;5078121;28;20481;-86
2022/03/10 11:46:26;;;;;;;18.25;10.32;;;15.30;55.00;;;;;;5078175;28;20021;-86
2022/03/10 11:49:15;;;;;;;16.23;8.18;;;17.30;53.00;;;;;;5077776;28;20036;-86
2022/03/10 11:51:52;;;;;;;15.40;8.52;;;18.30;50.70;;;;;;5077048;28;20057;-85
2022/03/10 11:54:24;;;;;;;11.02;7.68;;;19.10;49.40;;;;;;5076888;28;20040;-85
2022/03/10 11:56:52;;;;;;;13.10;7.85;;;19.80;48.60;;;;;;5078121;28;20023;-84
2022/03/10 11:59:25;;;;;;;14.63;7.28;;;21.00;47.00;;;;;;5080597;28;20052;-87
2022/03/10 12:01:53;;;;;;;10.40;7.60;;;21.90;45.20;;;;;;5077795;28;20079;-86
2022/03/10 12:04:22;;;;;;;12.40;8.05;;;22.20;44.40;;;;;;5077857;28;20028;-86
2022/03/10 12:06:58;;;;;;;15.55;10.23;;;22.40;44.30;;;;;;5080356;28;20036;-85
2022/03/10 12:09:38;;;;;;;17.20;9.27;;;21.60;44.10;;;;;;5080477;28;20025;-86
2022/03/10 12:12:16;;;;;;;13.93;7.55;;;20.70;44.90;;;;;;5078215;28;20036;-88
2022/03/10 12:14:42;;;;;;;13.60;8.52;;;21.40;44.60;;;;;;5074726;28;20021;-88
2022/03/10 12:17:45;;;;;;;13.15;8.93;;;20.90;45.00;;;;;;5091475;28;20128;-88
2022/03/10 12:20:23;;;;;;;19.23;9.38;;;20.20;45.20;;;;;;5094474;28;20032;-86
2022/03/10 12:23:06;;;;;;;14.25;9.25;;;20.60;45.10;;;;;;5093502;28;20029;-86
2022/03/10 12:25:42;;;;;;;13.00;8.32;;;20.80;45.20;;;;;;5092345;28;20032;-88
2022/03/10 12:28:10;;;;;;;12.88;8.93;;;21.10;44.50;;;;;;5090149;28;20032;-87
2022/03/10 12:30:44;;;;;;;14.32;8.27;;;21.20;44.10;;;;;;5091227;28;20016;-86
2022/03/10 12:33:12;;;;;;;13.80;8.23;;;20.80;44.20;;;;;;5095296;28;20052;-85
2022/03/10 12:35:40;;;;;;;13.18;7.85;;;20.90;44.30;;;;;;5090052;28;20051;-87
2022/03/10 12:38:08;;;;;;;12.60;8.00;;;21.00;44.10;;;;;;5089432;28;20051;-88
2022/03/10 12:40:36;;;;;;;13.50;7.10;;;21.10;43.50;;;;;;5092008;28;20023;-88
2022/03/10 12:43:09;;;;;;;13.45;7.85;;;20.90;43.60;;;;;;5094170;28;20036;-87
2022/03/10 12:46:01;;;;;;;11.13;7.35;;;19.90;43.80;;;;;;5095098;28;20067;-87
2022/03/10 12:48:47;;;;;;;13.25;8.20;;;20.60;43.50;;;;;;5095158;28;20108;-85